createdAt,value
2022-10-07T00:01:31.583Z,9.10
2022-10-07T00:03:59.705Z,9.10
2022-10-07T00:06:28.023Z,9.20
2022-10-07T00:08:56.246Z,9.30
2022-10-07T00:11:26.966Z,9.30
2022-10-07T00:13:58.923Z,9.30
2022-10-07T00:16:30.333Z,9.30
2022-10-07T00:19:00.662Z,9.30
2022-10-07T00:21:31.481Z,9.30
2022-10-07T00:24:00.162Z,9.30
2022-10-07T00:26:30.318Z,9.30
2022-10-07T00:29:00.013Z,9.30
2022-10-07T00:31:31.003Z,9.20
2022-10-07T00:33:59.848Z,9.20
2022-10-07T00:36:29.650Z,9.10
2022-10-07T00:38:59.739Z,9.00
2022-10-07T00:41:30.147Z,9.00
2022-10-07T00:43:59.981Z,8.90
2022-10-07T00:46:32.499Z,8.90
2022-10-07T00:49:04.018Z,8.80
2022-10-07T00:51:33.491Z,8.80
2022-10-07T00:54:04.844Z,8.80
2022-10-07T00:56:34.921Z,8.70
2022-10-07T00:59:05.567Z,8.60
2022-10-07T01:01:34.049Z,8.60
2022-10-07T01:04:02.255Z,8.50
2022-10-07T01:06:30.299Z,8.50
2022-10-07T01:08:58.562Z,8.50
2022-10-07T01:11:40.614Z,8.40
2022-10-07T01:14:16.690Z,8.40
2022-10-07T01:16:55.044Z,8.40
2022-10-07T01:19:46.827Z,8.50
2022-10-07T01:22:26.805Z,8.50
2022-10-07T01:25:12.474Z,8.50
2022-10-07T01:27:48.807Z,8.60
2022-10-07T01:30:18.132Z,8.60
2022-10-07T01:32:53.120Z,8.60
2022-10-07T01:35:25.708Z,8.70
2022-10-07T01:37:57.468Z,8.70
2022-10-07T01:40:28.813Z,8.70
2022-10-07T01:42:59.719Z,8.70
2022-10-07T01:45:30.363Z,8.60
2022-10-07T01:47:59.287Z,8.60
2022-10-07T01:50:29.948Z,8.70
2022-10-07T01:53:15.271Z,8.60
2022-10-07T01:55:54.626Z,8.50
2022-10-07T01:58:45.653Z,8.50
2022-10-07T02:01:20.233Z,8.50
2022-10-07T02:04:06.921Z,8.40
2022-10-07T02:06:42.391Z,8.40
2022-10-07T02:09:26.852Z,8.40
2022-10-07T02:12:04.379Z,8.30
2022-10-07T02:14:40.157Z,8.30
2022-10-07T02:17:14.171Z,8.30
2022-10-07T02:19:47.587Z,8.30
2022-10-07T02:22:18.396Z,8.30
2022-10-07T02:24:49.289Z,8.20
2022-10-07T02:27:21.818Z,8.20
2022-10-07T02:29:58.432Z,8.20
2022-10-07T02:32:28.554Z,8.20
2022-10-07T02:35:02.692Z,8.10
2022-10-07T02:37:35.167Z,8.20
2022-10-07T02:40:12.072Z,8.10
2022-10-07T02:42:48.381Z,8.20
2022-10-07T02:45:26.769Z,8.10
2022-10-07T02:48:01.130Z,8.10
2022-10-07T02:50:37.553Z,8.00
2022-10-07T02:53:06.894Z,8.00
2022-10-07T02:55:36.118Z,8.00
2022-10-07T02:58:07.941Z,7.90
2022-10-07T03:00:41.671Z,7.90
2022-10-07T03:03:10.792Z,7.90
2022-10-07T03:05:49.519Z,7.90
2022-10-07T03:08:18.609Z,7.80
2022-10-07T03:10:46.963Z,7.80
2022-10-07T03:13:16.488Z,7.80
2022-10-07T03:15:52.057Z,7.80
2022-10-07T03:18:28.585Z,7.80
2022-10-07T03:21:19.318Z,7.80
2022-10-07T03:23:52.191Z,7.90
2022-10-07T03:26:21.983Z,7.90
2022-10-07T03:28:51.174Z,7.90
2022-10-07T03:31:21.880Z,7.90
2022-10-07T03:33:52.469Z,7.90
2022-10-07T03:36:21.487Z,7.90
2022-10-07T03:38:49.581Z,7.90
2022-10-07T03:41:18.989Z,7.90
2022-10-07T03:43:50.052Z,7.80
2022-10-07T03:46:24.106Z,7.80
2022-10-07T03:48:52.988Z,7.80
2022-10-07T03:51:21.265Z,7.80
2022-10-07T03:53:49.668Z,7.80
2022-10-07T03:56:18.195Z,7.80
2022-10-07T03:58:46.148Z,7.70
2022-10-07T04:01:15.627Z,7.70
2022-10-07T04:03:50.315Z,7.70
2022-10-07T04:06:19.396Z,7.70
2022-10-07T04:08:47.670Z,7.70
2022-10-07T04:11:15.621Z,7.70
2022-10-07T04:13:45.341Z,7.70
2022-10-07T04:16:14.425Z,7.60
2022-10-07T04:18:44.651Z,7.70
2022-10-07T04:21:14.713Z,7.70
2022-10-07T04:23:43.295Z,7.70
2022-10-07T04:26:13.724Z,7.60
2022-10-07T04:28:45.858Z,7.70
2022-10-07T04:31:19.045Z,7.70
2022-10-07T04:33:51.222Z,7.70
2022-10-07T04:36:28.478Z,7.70
2022-10-07T04:39:16.799Z,7.70
2022-10-07T04:41:54.676Z,7.70
2022-10-07T04:44:27.079Z,7.70
2022-10-07T04:47:00.523Z,7.70
2022-10-07T04:49:31.485Z,7.70
2022-10-07T04:52:03.238Z,7.70
2022-10-07T04:54:36.130Z,7.70
2022-10-07T04:57:04.730Z,7.70
2022-10-07T04:59:34.471Z,7.80
2022-10-07T05:02:03.282Z,7.80
2022-10-07T05:04:34.360Z,7.70
2022-10-07T05:07:05.055Z,7.70
2022-10-07T05:09:35.268Z,7.70
2022-10-07T05:12:03.295Z,7.70
2022-10-07T05:14:32.003Z,7.70
2022-10-07T05:17:00.789Z,7.70
2022-10-07T05:19:35.610Z,7.70
2022-10-07T05:22:06.324Z,7.70
2022-10-07T05:24:34.437Z,7.70
2022-10-07T05:27:03.334Z,7.70
2022-10-07T05:29:31.310Z,7.60
2022-10-07T05:32:04.542Z,7.60
2022-10-07T05:34:33.718Z,7.60
2022-10-07T05:37:01.700Z,7.60
2022-10-07T05:39:31.205Z,7.60
2022-10-07T05:42:06.606Z,7.70
2022-10-07T05:44:41.027Z,7.70
2022-10-07T05:47:09.037Z,7.70
2022-10-07T05:49:37.758Z,7.70
2022-10-07T05:52:07.721Z,7.70
2022-10-07T05:54:38.263Z,7.70
2022-10-07T05:57:06.730Z,7.70
2022-10-07T05:59:35.617Z,7.70
2022-10-07T06:02:04.855Z,7.70
2022-10-07T06:04:33.849Z,7.80
2022-10-07T06:07:04.044Z,7.80
2022-10-07T06:09:49.730Z,7.90
2022-10-07T06:12:37.796Z,7.90
2022-10-07T06:15:11.446Z,8.00
2022-10-07T06:17:44.545Z,8.00
2022-10-07T06:20:15.223Z,8.10
2022-10-07T06:22:44.811Z,8.10
2022-10-07T06:25:14.751Z,8.20
2022-10-07T06:27:47.306Z,8.20
2022-10-07T06:30:18.357Z,8.30
2022-10-07T06:32:46.361Z,8.30
2022-10-07T06:35:14.544Z,8.40
2022-10-07T06:37:43.041Z,8.50
2022-10-07T06:40:12.780Z,8.50
2022-10-07T06:42:41.033Z,8.50
2022-10-07T06:45:32.706Z,8.60
2022-10-07T06:48:01.378Z,8.70
2022-10-07T06:50:30.226Z,8.70
2022-10-07T06:52:58.463Z,8.80
2022-10-07T06:55:27.442Z,8.90
2022-10-07T06:57:55.776Z,9.00
2022-10-07T07:00:23.920Z,9.00
2022-10-07T07:02:53.629Z,9.10
2022-10-07T07:05:21.791Z,9.10
2022-10-07T07:07:51.538Z,9.20
2022-10-07T07:10:20.089Z,9.20
2022-10-07T07:12:54.607Z,9.20
2022-10-07T07:15:23.137Z,9.20
2022-10-07T07:17:51.259Z,9.30
2022-10-07T07:20:21.228Z,9.30
2022-10-07T07:22:50.100Z,9.40
2022-10-07T07:25:18.277Z,9.40
2022-10-07T07:27:48.832Z,9.50
2022-10-07T07:30:23.025Z,9.50
2022-10-07T07:32:53.157Z,9.60
2022-10-07T07:35:23.067Z,9.60
2022-10-07T07:37:51.357Z,9.70
2022-10-07T07:40:20.456Z,9.80
2022-10-07T07:42:48.663Z,10.00
2022-10-07T07:45:18.014Z,10.10
2022-10-07T07:47:49.326Z,10.10
2022-10-07T07:50:20.913Z,10.10
2022-10-07T07:52:55.239Z,10.20
2022-10-07T07:55:25.329Z,10.30
2022-10-07T07:57:53.393Z,10.40
2022-10-07T08:00:21.589Z,10.50
2022-10-07T08:03:00.772Z,10.60
2022-10-07T08:05:28.766Z,10.70
2022-10-07T08:08:00.254Z,10.80
2022-10-07T08:10:29.670Z,10.90
2022-10-07T08:12:57.677Z,10.90
2022-10-07T08:15:25.770Z,11.00
2022-10-07T08:17:53.876Z,11.10
2022-10-07T08:20:21.958Z,11.10
2022-10-07T08:22:53.586Z,11.10
2022-10-07T08:25:28.192Z,11.10
2022-10-07T08:27:57.814Z,11.10
2022-10-07T08:30:25.897Z,11.20
2022-10-07T08:32:57.807Z,11.30
2022-10-07T08:35:28.544Z,11.50
2022-10-07T08:37:56.682Z,11.50
2022-10-07T08:40:25.973Z,11.60
2022-10-07T08:43:00.232Z,11.70
2022-10-07T08:45:35.037Z,11.70
2022-10-07T08:48:14.414Z,11.80
2022-10-07T08:50:51.702Z,11.80
2022-10-07T08:53:25.922Z,11.80
2022-10-07T08:55:57.462Z,11.90
2022-10-07T08:58:40.859Z,11.90
2022-10-07T09:01:20.188Z,12.00
2022-10-07T09:03:57.913Z,12.20
2022-10-07T09:06:30.876Z,12.30
2022-10-07T09:09:04.186Z,12.40
2022-10-07T09:11:35.732Z,12.40
2022-10-07T09:14:18.004Z,12.40
2022-10-07T09:16:48.455Z,12.40
2022-10-07T09:19:23.621Z,12.40
2022-10-07T09:21:58.454Z,12.50
2022-10-07T09:24:29.174Z,12.60
2022-10-07T09:27:00.692Z,12.70
2022-10-07T09:29:30.768Z,12.80
2022-10-07T09:31:59.067Z,12.90
2022-10-07T09:34:28.956Z,13.00
2022-10-07T09:37:15.111Z,13.00
2022-10-07T09:39:44.573Z,13.10
2022-10-07T09:42:39.663Z,13.10
2022-10-07T09:45:22.393Z,13.20
2022-10-07T09:47:53.610Z,13.30
2022-10-07T09:50:34.344Z,13.40
2022-10-07T09:53:02.949Z,13.50
2022-10-07T09:55:37.639Z,13.50
2022-10-07T09:58:17.038Z,13.60
2022-10-07T10:00:47.124Z,13.70
2022-10-07T10:03:15.766Z,13.80
2022-10-07T10:05:54.829Z,13.90
2022-10-07T10:08:26.530Z,14.00
2022-10-07T10:10:56.586Z,14.10
2022-10-07T10:13:32.338Z,14.20
2022-10-07T10:16:01.277Z,14.40
2022-10-07T10:18:36.534Z,14.50
2022-10-07T10:21:23.314Z,14.60
2022-10-07T10:23:53.537Z,14.70
2022-10-07T10:26:34.334Z,14.90
2022-10-07T10:29:14.829Z,15.00
2022-10-07T10:32:07.333Z,15.10
2022-10-07T10:34:45.865Z,15.20
2022-10-07T10:37:18.473Z,15.20
2022-10-07T10:39:57.433Z,15.30
2022-10-07T10:42:32.373Z,15.40
2022-10-07T10:45:18.330Z,15.50
2022-10-07T10:48:00.739Z,15.60
2022-10-07T10:50:36.651Z,15.70
2022-10-07T10:53:19.186Z,15.90
2022-10-07T10:56:01.228Z,15.90
2022-10-07T10:58:42.943Z,16.00
2022-10-07T11:01:23.896Z,16.10
2022-10-07T11:04:16.949Z,16.10
2022-10-07T11:06:48.962Z,16.20
2022-10-07T11:09:18.564Z,16.30
2022-10-07T11:11:48.831Z,16.30
2022-10-07T11:14:22.822Z,16.40
2022-10-07T11:16:56.573Z,16.60
2022-10-07T11:19:31.941Z,16.60
2022-10-07T11:22:03.234Z,16.70
2022-10-07T11:24:35.636Z,16.80
2022-10-07T11:27:13.878Z,16.90
2022-10-07T11:29:48.279Z,16.90
2022-10-07T11:32:23.084Z,16.90
2022-10-07T11:34:58.443Z,16.90
2022-10-07T11:37:34.668Z,17.10
2022-10-07T11:40:05.829Z,17.10
2022-10-07T11:42:40.250Z,17.20
2022-10-07T11:45:10.944Z,17.30
2022-10-07T11:47:42.870Z,17.40
2022-10-07T11:50:18.066Z,17.50
2022-10-07T11:52:48.867Z,17.60
2022-10-07T11:55:24.084Z,17.60
2022-10-07T11:57:55.777Z,17.70
2022-10-07T12:00:26.620Z,17.70
2022-10-07T12:02:56.339Z,17.80
2022-10-07T12:06:07.222Z,17.80
2022-10-07T12:08:36.819Z,17.80
2022-10-07T12:11:44.453Z,17.90
2022-10-07T12:14:33.664Z,17.90
2022-10-07T12:17:22.889Z,18.00
2022-10-07T12:20:24.317Z,18.10
2022-10-07T12:23:28.298Z,18.20
2022-10-07T12:26:07.110Z,18.30
2022-10-07T12:28:45.974Z,18.30
2022-10-07T12:31:46.294Z,18.40
2022-10-07T12:34:27.918Z,18.50
2022-10-07T12:37:27.676Z,18.60
2022-10-07T12:39:55.946Z,18.60
2022-10-07T12:44:54.899Z,18.80
2022-10-07T12:47:28.025Z,19.00
2022-10-07T12:49:59.040Z,19.00
2022-10-07T12:52:38.189Z,19.00
2022-10-07T12:55:10.963Z,19.10
2022-10-07T12:57:43.809Z,19.10
2022-10-07T13:00:15.469Z,19.20
2022-10-07T13:03:43.649Z,19.30
2022-10-07T13:06:30.283Z,19.30
2022-10-07T13:09:26.365Z,19.40
2022-10-07T13:12:27.553Z,19.40
2022-10-07T13:15:07.322Z,19.40
2022-10-07T13:17:45.269Z,19.40
2022-10-07T13:20:29.647Z,19.50
2022-10-07T13:22:57.741Z,19.60
2022-10-07T13:25:25.828Z,19.70
2022-10-07T13:27:56.548Z,20.10
2022-10-07T13:30:41.926Z,20.50
2022-10-07T13:33:23.066Z,20.80
2022-10-07T13:35:52.102Z,21.10
2022-10-07T13:38:25.060Z,21.50
2022-10-07T13:41:03.103Z,21.80
2022-10-07T13:43:34.225Z,22.10
2022-10-07T13:46:05.126Z,22.30
2022-10-07T13:48:35.389Z,22.40
2022-10-07T13:51:03.773Z,22.60
2022-10-07T13:53:35.321Z,22.70
2022-10-07T13:56:09.834Z,23.00
2022-10-07T13:58:38.522Z,23.10
2022-10-07T14:01:08.045Z,23.30
2022-10-07T14:03:36.184Z,23.40
2022-10-07T14:06:04.244Z,23.50
2022-10-07T14:08:32.704Z,23.60
2022-10-07T14:11:04.686Z,23.70
2022-10-07T14:13:34.918Z,23.90
2022-10-07T14:16:02.923Z,24.10
2022-10-07T14:18:32.803Z,24.30
2022-10-07T14:21:10.387Z,24.50
2022-10-07T14:23:38.589Z,24.80
2022-10-07T14:26:09.682Z,25.00
2022-10-07T14:28:39.704Z,25.00
2022-10-07T14:31:35.588Z,25.10
2022-10-07T14:34:30.818Z,25.00
2022-10-07T14:37:03.682Z,24.80
2022-10-07T14:39:36.581Z,24.70
2022-10-07T14:42:05.942Z,24.60
2022-10-07T14:44:34.135Z,24.50
2022-10-07T14:47:06.985Z,24.40
2022-10-07T14:49:36.475Z,24.50
2022-10-07T14:52:06.367Z,24.60
2022-10-07T14:54:35.466Z,24.60
2022-10-07T14:57:03.371Z,24.50
2022-10-07T14:59:31.314Z,24.50
2022-10-07T15:01:59.224Z,24.60
2022-10-07T15:04:27.263Z,24.50
2022-10-07T15:06:56.609Z,24.50
2022-10-07T15:09:24.645Z,24.60
2022-10-07T15:11:52.949Z,24.50
2022-10-07T15:14:20.984Z,24.60
2022-10-07T15:17:14.380Z,24.70
2022-10-07T15:19:42.436Z,24.60
2022-10-07T15:22:11.777Z,24.60
2022-10-07T15:24:39.865Z,24.60
2022-10-07T15:27:09.742Z,24.60
2022-10-07T15:29:37.863Z,24.60
2022-10-07T15:32:06.077Z,24.60
2022-10-07T15:34:34.145Z,24.60
2022-10-07T15:37:02.028Z,24.60
2022-10-07T15:39:33.284Z,24.40
2022-10-07T15:42:08.691Z,24.40
2022-10-07T15:44:36.703Z,24.40
2022-10-07T15:47:04.621Z,24.40
2022-10-07T15:49:32.691Z,24.30
2022-10-07T15:52:01.337Z,24.20
2022-10-07T15:54:31.920Z,24.20
2022-10-07T15:57:00.009Z,24.10
2022-10-07T15:59:28.952Z,24.00
2022-10-07T16:01:57.286Z,23.80
2022-10-07T16:04:25.470Z,23.70
2022-10-07T16:06:53.426Z,23.60
2022-10-07T16:09:22.983Z,23.40
2022-10-07T16:11:52.291Z,23.30
2022-10-07T16:14:20.293Z,23.10
2022-10-07T16:16:48.206Z,22.90
2022-10-07T16:19:16.157Z,22.70
2022-10-07T16:21:44.386Z,22.50
2022-10-07T16:24:16.284Z,22.30
2022-10-07T16:26:46.275Z,22.10
2022-10-07T16:29:35.714Z,21.80
2022-10-07T16:32:04.093Z,21.40
2022-10-07T16:34:32.093Z,21.20
2022-10-07T16:37:00.275Z,20.90
2022-10-07T16:39:28.319Z,20.70
2022-10-07T16:41:58.149Z,20.50
2022-10-07T16:44:27.962Z,20.20
2022-10-07T16:46:56.953Z,19.90
2022-10-07T16:49:27.408Z,19.70
2022-10-07T16:51:56.363Z,19.50
2022-10-07T16:54:24.655Z,19.30
2022-10-07T16:56:53.451Z,19.10
2022-10-07T16:59:24.316Z,18.90
2022-10-07T17:01:55.789Z,18.70
2022-10-07T17:04:24.795Z,18.50
2022-10-07T17:06:53.284Z,18.20
2022-10-07T17:09:24.349Z,18.00
2022-10-07T17:11:52.275Z,17.80
2022-10-07T17:14:21.858Z,17.60
2022-10-07T17:16:51.405Z,17.50
2022-10-07T17:19:22.238Z,17.30
2022-10-07T17:21:51.125Z,17.10
2022-10-07T17:24:20.375Z,16.90
2022-10-07T17:26:49.884Z,16.80
2022-10-07T17:29:20.660Z,16.60
2022-10-07T17:31:50.559Z,16.50
2022-10-07T17:34:22.076Z,16.30
2022-10-07T17:36:50.564Z,16.20
2022-10-07T17:39:19.102Z,16.00
2022-10-07T17:41:47.617Z,15.90
2022-10-07T17:44:15.713Z,15.70
2022-10-07T17:46:43.971Z,15.60
2022-10-07T17:49:13.978Z,15.50
2022-10-07T17:51:44.254Z,15.40
2022-10-07T17:54:13.607Z,15.30
2022-10-07T17:56:44.307Z,15.20
2022-10-07T17:59:12.325Z,15.00
2022-10-07T18:01:41.227Z,14.90
2022-10-07T18:04:12.237Z,14.80
2022-10-07T18:06:42.764Z,14.70
2022-10-07T18:09:15.018Z,14.60
2022-10-07T18:12:00.758Z,14.50
2022-10-07T18:14:53.446Z,14.40
2022-10-07T18:17:22.894Z,14.30
2022-10-07T18:19:51.135Z,14.20
2022-10-07T18:22:19.253Z,14.10
2022-10-07T18:24:49.729Z,14.10
2022-10-07T18:27:17.757Z,14.00
2022-10-07T18:29:45.791Z,14.00
2022-10-07T18:32:13.886Z,13.90
2022-10-07T18:34:41.996Z,13.90
2022-10-07T18:37:10.196Z,13.80
2022-10-07T18:39:38.902Z,13.80
2022-10-07T18:42:08.700Z,13.70
2022-10-07T18:44:36.735Z,13.70
2022-10-07T18:47:04.922Z,13.60
2022-10-07T18:49:33.081Z,13.50
2022-10-07T18:52:01.428Z,13.40
2022-10-07T18:54:29.521Z,13.40
2022-10-07T18:56:57.465Z,13.30
2022-10-07T18:59:27.006Z,13.30
2022-10-07T19:01:55.200Z,13.20
2022-10-07T19:04:23.460Z,13.20
2022-10-07T19:06:51.547Z,13.10
2022-10-07T19:09:21.535Z,13.00
2022-10-07T19:11:50.347Z,12.90
2022-10-07T19:14:17.598Z,12.80
2022-10-07T19:16:49.174Z,12.80
2022-10-07T19:19:19.693Z,12.70
2022-10-07T19:21:49.197Z,12.70
2022-10-07T19:24:17.534Z,12.70
2022-10-07T19:26:48.928Z,12.60
2022-10-07T19:29:18.444Z,12.60
2022-10-07T19:31:49.731Z,12.60
2022-10-07T19:34:21.667Z,12.50
2022-10-07T19:36:50.268Z,12.50
2022-10-07T19:39:23.605Z,12.40
2022-10-07T19:41:51.541Z,12.40
2022-10-07T19:44:19.884Z,12.30
2022-10-07T19:46:51.480Z,12.20
2022-10-07T19:49:19.575Z,12.20
2022-10-07T19:51:47.650Z,12.10
2022-10-07T19:54:15.838Z,12.10
2022-10-07T19:56:45.062Z,12.00
2022-10-07T19:59:14.508Z,11.90
2022-10-07T20:01:45.329Z,11.90
2022-10-07T20:04:16.870Z,11.80
2022-10-07T20:06:45.263Z,11.80
2022-10-07T20:09:15.110Z,11.80
2022-10-07T20:11:43.415Z,11.80
2022-10-07T20:14:11.989Z,11.70
2022-10-07T20:16:40.278Z,11.70
2022-10-07T20:19:12.062Z,11.70
2022-10-07T20:21:41.450Z,11.60
2022-10-07T20:24:09.914Z,11.60
2022-10-07T20:26:39.259Z,11.50
2022-10-07T20:29:10.197Z,11.50
2022-10-07T20:31:40.806Z,11.50
2022-10-07T20:34:12.256Z,11.40
2022-10-07T20:36:42.225Z,11.40
2022-10-07T20:39:33.123Z,11.40
2022-10-07T20:42:18.398Z,11.30
2022-10-07T20:44:48.210Z,11.30
2022-10-07T20:47:16.734Z,11.30
2022-10-07T20:49:44.720Z,11.20
2022-10-07T20:52:16.719Z,11.20
2022-10-07T20:54:45.059Z,11.20
2022-10-07T20:57:15.217Z,11.20
2022-10-07T20:59:44.224Z,11.10
2022-10-07T21:02:13.515Z,11.10
2022-10-07T21:04:41.702Z,11.10
2022-10-07T21:07:09.670Z,11.00
2022-10-07T21:09:41.309Z,11.00
2022-10-07T21:12:11.379Z,10.90
2022-10-07T21:14:39.375Z,10.90
2022-10-07T21:17:08.076Z,10.90
2022-10-07T21:19:36.681Z,10.90
2022-10-07T21:22:05.893Z,10.80
2022-10-07T21:24:35.147Z,10.80
2022-10-07T21:27:07.691Z,10.80
2022-10-07T21:29:40.397Z,10.80
2022-10-07T21:32:09.358Z,10.80
2022-10-07T21:34:37.540Z,10.70
2022-10-07T21:37:05.815Z,10.70
2022-10-07T21:39:34.105Z,10.70
2022-10-07T21:42:02.122Z,10.70
2022-10-07T21:44:33.339Z,10.80
2022-10-07T21:47:01.474Z,10.80
2022-10-07T21:49:29.389Z,10.80
2022-10-07T21:51:57.361Z,10.70
2022-10-07T21:54:26.296Z,10.70
2022-10-07T21:56:54.428Z,10.70
2022-10-07T21:59:22.294Z,10.60
2022-10-07T22:01:51.862Z,10.60
2022-10-07T22:04:20.297Z,10.50
2022-10-07T22:07:05.413Z,10.50
2022-10-07T22:09:33.401Z,10.50
2022-10-07T22:12:01.371Z,10.50
2022-10-07T22:14:29.378Z,10.50
2022-10-07T22:16:58.657Z,10.50
2022-10-07T22:19:26.856Z,10.50
2022-10-07T22:21:55.214Z,10.50
2022-10-07T22:24:24.088Z,10.50
2022-10-07T22:26:52.199Z,10.50
2022-10-07T22:29:22.621Z,10.40
2022-10-07T22:31:50.687Z,10.50
2022-10-07T22:34:38.219Z,10.50
2022-10-07T22:37:06.627Z,10.50
2022-10-07T22:39:34.691Z,10.40
2022-10-07T22:42:03.795Z,10.40
2022-10-07T22:44:32.129Z,10.40
2022-10-07T22:47:01.045Z,10.40
2022-10-07T22:49:30.785Z,10.40
2022-10-07T22:51:59.689Z,10.40
2022-10-07T22:54:28.590Z,10.40
2022-10-07T22:56:56.609Z,10.40
2022-10-07T22:59:24.672Z,10.40
2022-10-07T23:01:52.940Z,10.50
2022-10-07T23:04:21.372Z,10.50
2022-10-07T23:06:50.836Z,10.60
2022-10-07T23:09:18.881Z,10.60
2022-10-07T23:11:46.823Z,10.60
2022-10-07T23:14:14.868Z,10.60
2022-10-07T23:16:43.621Z,10.60
2022-10-07T23:19:11.781Z,10.70
2022-10-07T23:21:39.658Z,10.70
2022-10-07T23:24:10.002Z,10.70
2022-10-07T23:26:38.716Z,10.80
2022-10-07T23:29:08.054Z,10.80
2022-10-07T23:31:36.214Z,10.80
2022-10-07T23:34:04.895Z,10.80
2022-10-07T23:36:34.722Z,10.90
2022-10-07T23:39:02.705Z,10.90
2022-10-07T23:41:32.633Z,11.00
2022-10-07T23:44:02.881Z,11.00
2022-10-07T23:46:33.846Z,11.10
2022-10-07T23:49:02.170Z,11.10
2022-10-07T23:51:32.202Z,11.20
2022-10-07T23:54:01.861Z,11.20
2022-10-07T23:56:31.705Z,11.20
2022-10-07T23:59:00.523Z,11.20
